Latest Weather Observations for Horsham

IDV60801

Issued at 5:52 am EDT Saturday 19 October 2019 (issued every 10 minutes, with the page automatically refreshed every 10 minutes)

About weather observations | Map of weather stations | Latest weather observations for VIC | Other Formats
Station Details ID: 079100 Name: HORSHAM AERODROME Lat: -36.67 Lon: 142.17 Height: 133.8 m
Data from the previous 72 hours. | See also: Recent months at Horsham
Date/Time
EDT
Temp
°C
App
Temp
°C
Dew
Point
°C
Rel
Hum
%
Delta-T
°C
Wind Press
QNH
hPa
Press
MSL
hPa
Rain since
9am
mm
Dir  Spd
km/h
Gust
km/h
Spd
kts
Gust
kts
19/05:30am 7.6 4.7 6.7 94 0.4 WNW 11 15 6 8 1015.0 1014.9 0.4
19/05:00am 8.2 4.7 7.1 93 0.5 WNW 15 19 8 10 1014.9 1014.8 0.4
19/04:30am 8.2 5.0 7.0 92 0.6 WNW 13 15 7 8 1014.8 1014.7 0.2
19/04:00am 8.1 4.9 7.0 93 0.5 WNW 13 15 7 8 1014.8 1014.7 0.2
19/03:30am 8.1 4.9 6.9 92 0.6 WNW 13 17 7 9 1014.8 1014.7 0.2
19/03:00am 8.1 4.9 6.9 92 0.6 WNW 13 17 7 9 1014.8 1014.7 0.2
19/02:30am 8.2 4.6 6.8 91 0.7 WNW 15 19 8 10 1014.9 1014.8 0.2
19/02:00am 8.3 4.7 6.8 90 0.7 WNW 15 19 8 10 1015.0 1014.9 0.2
19/01:30am 8.1 4.8 6.4 89 0.8 WNW 13 17 7 9 1015.2 1015.1 0.2
19/01:00am 8.0 5.0 6.1 88 0.9 WNW 11 13 6 7 1015.2 1015.1 0.2
19/12:30am 8.3 5.3 6.1 86 1.0 W 11 15 6 8 1015.3 1015.2 0.2
19/12:00am 7.9 4.4 5.5 85 1.1 W 13 17 7 9 1015.3 1015.2 0.2
 
Date/Time
EDT
Temp
°C
App
Temp
°C
Dew
Point
°C
Rel
Hum
%
Delta-T
°C
Wind Press
QNH
hPa
Press
MSL
hPa
Rain since
9am
mm
Dir  Spd
km/h
Gust
km/h
Spd
kts
Gust
kts
18/11:30pm 9.9 6.6 6.4 79 1.6 W 13 17 7 9 1015.2 1015.1 0.2
18/11:00pm 10.4 6.4 6.7 78 1.8 W 17 20 9 11 1015.4 1015.3 0.2
18/10:30pm 10.5 6.9 6.6 77 1.8 W 15 19 8 10 1015.4 1015.3 0.2
18/10:00pm 11.2 7.2 6.7 74 2.1 W 17 22 9 12 1015.2 1015.1 0.2
18/09:30pm 11.2 7.4 7.5 78 1.8 W 17 24 9 13 1015.0 1014.9 0.2
18/09:00pm 11.2 7.8 7.7 79 1.7 WSW 15 19 8 10 1014.7 1014.6 0.2
18/08:30pm 12.6 8.5 8.5 76 2.1 W 20 28 11 15 1014.6 1014.5 0.2
18/08:00pm 12.6 8.6 9.2 80 1.7 W 20 28 11 15 1014.2 1014.1 0.2
18/07:30pm 12.9 8.3 9.5 80 1.7 W 24 32 13 17 1014.0 1013.9 0.2
18/07:00pm 13.0 7.2 9.6 80 1.7 W 30 37 16 20 1013.7 1013.6 0.2
18/06:30pm 13.2 7.4 11.4 89 1.0 W 33 44 18 24 1013.6 1013.5 0.2
18/06:00pm 15.9 8.3 9.1 64 3.5 W 39 61 21 33 1012.7 1012.7 0.0
18/05:58pm 17.1 9.2 8.0 55 4.6 W 39 57 21 31 1012.3 1012.3 0.0
18/05:30pm 19.1 11.2 6.2 43 6.4 WNW 37 46 20 25 1011.7 1011.7 0.0
18/05:09pm 19.7 10.9 5.7 40 7.0 WNW 41 59 22 32 1011.7 1011.7 0.0
18/05:00pm 19.8 11.6 6.5 42 6.7 WNW 39 52 21 28 1011.7 1011.7 0.0
18/04:30pm 18.9 11.0 6.1 43 6.4 WNW 37 48 20 26 1012.0 1012.0 0.0
18/04:12pm 19.9 11.5 5.5 39 7.1 WNW 39 57 21 31 1012.0 1012.0 0.0
18/04:00pm 19.6 10.8 5.6 40 6.9 WNW 41 54 22 29 1012.1 1012.1 0.0
18/03:30pm 19.2 10.7 5.3 40 6.8 WNW 39 52 21 28 1012.3 1012.3 0.0
18/03:00pm 19.3 10.6 4.3 37 7.2 WNW 39 63 21 34 1012.6 1012.6 0.0
18/02:40pm 20.2 11.5 3.9 34 7.8 WNW 39 57 21 31 1012.7 1012.7 0.0
18/02:30pm 20.6 11.4 3.3 32 8.3 NW 41 50 22 27 1012.7 1012.7 0.0
18/02:02pm 20.1 11.0 4.2 35 7.7 NW 41 59 22 32 1013.2 1013.2 0.0
18/02:00pm 19.8 10.1 3.1 33 7.9 NW 43 59 23 32 1013.1 1013.1 0.0
18/01:31pm 19.6 10.1 4.1 36 7.5 NW 43 69 23 37 1013.4 1013.4 0.0
18/01:30pm 18.7 9.0 2.9 35 7.4 NNW 43 54 23 29 1013.6 1013.5 0.0
18/01:08pm 18.7 10.3 3.7 37 7.1 NW 37 59 20 32 1014.1 1014.0 0.0
18/01:00pm 19.3 11.1 4.6 38 7.1 NW 37 52 20 28 1014.4 1014.3 0.0
18/12:30pm 18.0 9.4 4.6 41 6.4 NW 39 54 21 29 1014.7 1014.6 0.0
18/12:00pm 17.0 8.1 5.0 45 5.8 NW 41 52 22 28 1015.1 1015.0 0.0
18/11:42am 16.1 7.6 5.1 48 5.3 NW 39 57 21 31 1015.1 1015.0 0.0
18/11:30am 17.1 8.8 6.0 48 5.4 NW 39 50 21 27 1015.4 1015.3 0.0
18/11:00am 15.3 7.3 5.5 52 4.7 NNW 37 48 20 26 1015.9 1015.8 0.0
18/10:30am 13.9 7.2 5.8 58 3.9 NNW 30 41 16 22 1016.4 1016.3 0.0
18/10:00am 12.2 5.0 5.1 62 3.3 NNW 32 41 17 22 1016.6 1016.5 0.0
18/09:30am 11.5 4.6 4.7 63 3.1 NNW 30 35 16 19 1016.8 1016.7 0.0
18/09:00am 10.0 4.8 5.4 73 2.1 NNW 22 28 12 15 1016.7 1016.6 0.0
18/08:30am 7.8 3.5 5.3 84 1.1 NNW 17 20 9 11 1016.6 1016.5 0.0
18/08:00am 5.9 1.8 4.4 90 0.6 NNW 15 17 8 9 1016.6 1016.5 0.0
18/07:30am 4.0 -0.3 3.0 93 0.4 NNW 15 20 8 11 1016.4 1016.3 0.0
18/07:00am 3.2 -1.7 2.2 93 0.4 NNW 17 20 9 11 1016.2 1016.1 0.0
18/06:30am 3.1 -2.1 2.2 94 0.4 N 19 22 10 12 1015.7 1015.6 0.0
18/06:00am 2.3 -2.3 1.4 94 0.3 N 15 20 8 11 1015.9 1015.8 0.0
18/05:30am 1.4 -2.3 0.2 92 0.4 N 9 11 5 6 1016.2 1016.1 0.0
18/05:00am 2.9 -0.9 1.7 92 0.5 N 11 11 6 6 1016.3 1016.2 0.0
18/04:30am 3.5 -0.6 2.5 93 0.4 N 13 15 7 8 1016.6 1016.5 0.0
18/04:00am 2.6 -1.6 1.4 92 0.5 N 13 15 7 8 1016.8 1016.7 0.0
18/03:30am 2.1 -2.2 1.1 93 0.4 NNW 13 13 7 7 1016.8 1016.7 0.0
18/03:00am 2.0 -2.0 0.8 92 0.5 NNW 11 11 6 6 1017.2 1017.2 0.0
18/02:30am 2.9 -0.5 1.7 92 0.5 N 9 11 5 6 1017.4 1017.4 0.0
18/02:00am 2.4 -1.5 1.1 91 0.5 NW 11 13 6 7 1017.5 1017.5 0.0
18/01:30am 2.8 -1.5 1.3 90 0.6 NNW 13 13 7 7 1017.7 1017.7 0.0
18/01:00am 3.5 -0.3 1.9 89 0.6 NNW 11 13 6 7 1017.8 1017.8 0.0
18/12:30am 4.2 0.5 2.6 89 0.6 NW 11 13 6 7 1017.9 1017.9 0.0
18/12:00am 4.7 1.4 2.6 86 0.9 WNW 9 13 5 7 1018.0 1018.0 0.0
 
Date/Time
EDT
Temp
°C
App
Temp
°C
Dew
Point
°C
Rel
Hum
%
Delta-T
°C
Wind Press
QNH
hPa
Press
MSL
hPa
Rain since
9am
mm
Dir  Spd
km/h
Gust
km/h
Spd
kts
Gust
kts
17/11:30pm 5.2 1.5 2.6 83 1.1 WNW 11 13 6 7 1018.1 1018.1 0.0
17/11:00pm 6.5 2.5 3.1 79 1.4 WNW 13 13 7 7 1018.0 1018.0 0.0
17/10:30pm 8.3 4.8 3.4 71 2.1 W 11 13 6 7 1018.0 1018.0 0.0
17/10:00pm 9.0 5.1 3.4 68 2.4 WSW 13 15 7 8 1018.1 1018.1 0.0
17/09:30pm 9.7 5.7 3.0 63 2.9 WSW 13 17 7 9 1018.0 1018.0 0.0
17/09:00pm 11.0 6.7 3.3 59 3.4 WSW 15 20 8 11 1017.8 1017.8 0.0
17/08:30pm 11.4 6.1 2.9 56 3.7 W 20 30 11 16 1017.5 1017.5 0.0
17/08:00pm 11.5 6.9 3.5 58 3.6 WSW 17 20 9 11 1017.2 1017.2 0.0
17/07:30pm 12.0 6.4 3.3 55 3.9 SW 22 30 12 16 1016.9 1016.8 0.0
17/07:00pm 12.4 5.5 2.6 51 4.3 SW 28 35 15 19 1016.6 1016.5 0.0
17/06:30pm 13.6 6.0 2.8 48 4.8 WSW 32 39 17 21 1016.2 1016.1 0.0
17/06:00pm 14.0 6.5 3.2 48 4.9 SW 32 43 17 23 1015.9 1015.8 0.0
17/05:30pm 14.8 7.0 3.0 45 5.3 SW 33 44 18 24 1015.3 1015.2 0.0
17/05:00pm 15.8 8.5 4.5 47 5.3 WSW 32 43 17 23 1015.0 1014.9 0.0
17/04:30pm 16.2 8.7 3.3 42 5.9 WSW 32 43 17 23 1014.8 1014.7 0.0
17/04:00pm 16.1 8.5 3.9 44 5.7 WSW 33 50 18 27 1014.6 1014.5 0.0
17/03:31pm 14.6 7.1 3.7 48 5.0 WSW 32 50 17 27 1014.5 1014.4 0.0
17/03:30pm 15.1 7.8 4.5 49 5.0 WSW 32 44 17 24 1014.5 1014.4 0.0
17/03:00pm 15.3 6.3 4.7 49 5.0 WSW 41 57 22 31 1014.6 1014.5 0.0
17/02:32pm 15.5 6.8 4.3 47 5.2 WSW 39 57 21 31 1014.7 1014.6 0.0
17/02:30pm 15.3 6.5 3.8 46 5.3 WSW 39 52 21 28 1014.7 1014.6 0.0
17/02:09pm 14.4 6.6 5.0 53 4.4 WSW 35 54 19 29 1014.6 1014.5 0.0
17/02:00pm 15.7 8.1 5.6 51 4.9 SW 35 48 19 26 1014.5 1014.4 0.0
17/01:43pm 14.7 6.4 4.1 49 4.9 WSW 37 56 20 30 1014.5 1014.4 0.0
17/01:30pm 15.7 7.2 5.0 49 5.1 W 39 54 21 29 1014.3 1014.2 0.0
17/01:14pm 15.5 8.0 4.6 48 5.1 WSW 33 52 18 28 1014.1 1014.0 0.0
17/01:00pm 14.0 4.9 4.0 51 4.6 WSW 41 54 22 29 1014.3 1014.2 0.0
17/12:45pm 13.6 6.0 3.7 51 4.5 WSW 33 54 18 29 1014.3 1014.2 0.0
17/12:30pm 14.1 7.2 4.7 53 4.4 WSW 30 39 16 21 1014.3 1014.2 0.0
17/12:00pm 12.7 5.2 4.2 56 3.9 WSW 33 50 18 27 1014.3 1014.2 0.0
17/11:30am 13.1 4.7 3.7 53 4.3 WSW 37 50 20 27 1014.0 1013.9 0.0
17/11:00am 12.6 5.1 4.6 58 3.7 WSW 33 44 18 24 1013.8 1013.7 0.0
17/10:30am 11.9 4.5 5.1 63 3.1 WSW 33 44 18 24 1013.7 1013.6 0.0
17/10:00am 11.3 4.2 5.6 68 2.7 WSW 32 46 17 25 1013.4 1013.4 0.0
17/09:30am 10.5 3.4 5.7 72 2.2 W 32 43 17 23 1013.2 1013.2 0.0
17/09:00am 9.4 2.8 6.1 80 1.5 W 30 39 16 21 1013.0 1013.0 1.4
17/08:30am 8.3 2.8 6.1 86 1.0 W 24 32 13 17 1012.6 1012.6 1.4
17/08:00am 7.2 2.5 6.0 92 0.5 W 20 28 11 15 1012.2 1012.2 1.4
17/07:30am 6.2 1.5 5.2 93 0.4 W 19 24 10 13 1011.7 1011.7 1.2
17/07:00am 5.8 1.4 4.9 94 0.4 W 17 20 9 11 1011.3 1011.3 1.2
17/06:30am 5.8 1.0 4.8 93 0.4 W 19 24 10 13 1011.0 1011.0 1.2
17/06:00am 5.8 0.8 4.8 93 0.4 W 20 26 11 14 1010.4 1010.3 1.2
17/05:30am 5.8 1.0 4.8 93 0.4 WNW 19 22 10 12 1010.1 1010.0 1.2
17/05:00am 6.1 1.4 5.1 93 0.4 W 19 22 10 12 1009.9 1009.8 1.2
17/04:30am 6.4 1.5 5.2 92 0.5 WNW 20 26 11 14 1009.9 1009.8 1.2
17/04:00am 6.9 1.4 5.7 92 0.5 WNW 24 37 13 20 1009.8 1009.7 1.2
17/03:30am 7.4 2.5 6.7 95 0.3 WNW 22 28 12 15 1010.1 1010.0 1.2
17/03:00am 7.9 3.6 7.1 95 0.4 WNW 19 22 10 12 1010.2 1010.1 1.2
17/02:30am 8.0 3.7 7.1 94 0.4 NW 19 24 10 13 1010.1 1010.0 1.2
17/02:00am 8.5 3.8 7.6 94 0.4 WNW 22 30 12 16 1010.3 1010.2 1.2
17/01:30am 9.1 4.9 8.2 94 0.4 NW 20 26 11 14 1010.5 1010.4 1.2
17/01:00am 9.2 5.0 8.1 93 0.5 WNW 20 28 11 15 1010.7 1010.6 1.2
17/12:30am 8.9 4.8 8.0 94 0.4 WNW 19 22 10 12 1010.9 1010.9 1.2
17/12:00am 9.2 5.5 8.1 93 0.5 WNW 17 19 9 10 1010.6 1010.5 1.2
 
Date/Time
EDT
Temp
°C
App
Temp
°C
Dew
Point
°C
Rel
Hum
%
Delta-T
°C
Wind Press
QNH
hPa
Press
MSL
hPa
Rain since
9am
mm
Dir  Spd
km/h
Gust
km/h
Spd
kts
Gust
kts
16/11:30pm 9.5 5.9 8.3 92 0.6 WNW 17 20 9 11 1011.2 1011.2 1.0
16/11:00pm 10.0 5.8 7.6 85 1.2 WNW 19 30 10 16 1011.3 1011.3 0.6
16/10:30pm 9.3 6.4 6.6 83 1.3 NNW 11 13 6 7 1010.7 1010.6 0.4
16/10:00pm 8.0 4.9 5.5 84 1.1 NW 11 13 6 7 1010.9 1010.9 0.4
16/09:30pm 8.4 5.5 4.8 78 1.6 WNW 9 11 5 6 1011.0 1011.0 0.4
16/09:00pm 10.1 7.2 4.9 70 2.4 WNW 9 11 5 6 1010.8 1010.7 0.4
16/08:30pm 12.2 7.8 4.7 60 3.4 W 17 22 9 12 1010.6 1010.5 0.4
16/08:00pm 13.1 8.1 4.5 56 4.0 W 20 26 11 14 1010.5 1010.4 0.4
16/07:30pm 14.8 8.6 4.5 50 4.8 W 26 33 14 18 1010.1 1010.0 0.4
16/07:00pm 16.3 10.9 4.7 46 5.5 W 22 35 12 19 1009.6 1009.5 0.4
16/06:30pm 17.4 10.6 5.0 44 6.0 WSW 30 43 16 23 1009.1 1009.0 0.4
16/06:00pm 18.1 11.8 5.7 44 6.1 W 28 41 15 22 1008.8 1008.7 0.4
16/05:30pm 17.7 12.4 6.9 49 5.4 W 24 33 13 18 1008.5 1008.4 0.4
16/05:00pm 18.4 12.9 9.2 55 4.9 WNW 28 41 15 22 1008.2 1008.1 0.4
16/04:30pm 18.6 15.3 11.7 64 3.8 WNW 20 30 11 16 1008.3 1008.2 0.4
16/04:00pm 17.3 14.2 13.4 78 2.2 NW 22 32 12 17 1008.7 1008.6 0.4
16/03:30pm 17.8 14.6 11.1 65 3.6 NW 19 26 10 14 1008.9 1008.8 0.4
16/03:00pm 17.9 15.3 11.9 68 3.3 WNW 17 24 9 13 1009.4 1009.3 0.2
16/02:30pm 16.3 13.2 11.5 73 2.6 W 19 24 10 13 1010.2 1010.1 0.2
16/02:00pm 14.9 12.1 11.3 79 1.9 W 17 20 9 11 1010.4 1010.3 0.2
16/01:30pm 14.9 11.7 11.3 79 1.9 W 19 22 10 12 1010.7 1010.6 0.2
16/01:00pm 15.3 11.5 11.1 76 2.3 W 22 32 12 17 1010.8 1010.7 0.2
16/12:30pm 14.8 11.4 11.2 79 1.9 W 20 30 11 16 1010.8 1010.7 0.2
16/12:19pm 14.9 11.2 11.5 80 1.8 W 22 30 12 16 1011.0 1011.0 0.2
16/12:00pm 14.4 10.3 11.6 83 1.5 WNW 24 30 13 16 1011.3 1011.3 0.2
16/11:31am 13.6 9.5 11.3 86 1.2 WNW 24 30 13 16 1011.7 1011.7 0.2
16/11:30am 13.8 9.7 11.5 86 1.2 WNW 24 32 13 17 1011.7 1011.7 0.2
16/11:00am 13.7 10.6 12.1 90 0.9 WNW 20 26 11 14 1011.6 1011.6 0.2
16/10:30am 13.1 10.2 12.2 94 0.5 NW 19 24 10 13 1011.6 1011.6 0.2
16/10:19am 13.0 10.5 12.2 95 0.4 NW 17 20 9 11 1011.9 1011.9 0.2
16/10:00am 12.8 11.0 12.0 95 0.4 NW 13 17 7 9 1011.6 1011.6 0.2
16/09:30am 12.5 10.6 11.9 96 0.3 WNW 13 15 7 8 1011.5 1011.5 0.2
16/09:00am 12.5 11.4 12.0 97 0.3 W 9 15 5 8 1011.4 1011.4 3.8
16/08:30am 12.3 10.8 11.8 97 0.3 N 11 15 6 8 1011.2 1011.2 3.8
16/08:00am 12.0 9.6 11.5 97 0.3 N 15 19 8 10 1011.6 1011.6 3.8
16/07:30am 11.7 9.6 11.2 97 0.3 N 13 17 7 9 1011.8 1011.8 2.6
16/07:00am 11.6 10.6 11.0 96 0.3 ENE 7 9 4 5 1011.2 1011.2 1.6
16/06:30am 11.3 10.4 10.7 96 0.3 ESE 6 7 3 4 1011.2 1011.2 1.2
16/06:00am 11.8 11.4 11.0 95 0.4 ENE 4 13 2 7 1010.7 1010.6 1.0

Other formats

Comma delimited format used in spreadsheet applications
http://www.bom.gov.au/fwo/IDV60801/IDV60801.95839.axf

JavaScript Object Notation format (JSON) in row-major order
http://www.bom.gov.au/fwo/IDV60801/IDV60801.95839.json

Data quality

Most of these data are generated automatically and are frequently updated. Quality checks on data are not normally performed. It is possible for incorrect values to appear. Refer to information at About Latest Weather Observations and please check the disclaimer before using these data.